Georgetown, Guyana

02:14 AM -04 am 24. März 2017 (GMT -0400)
Cheddi Jagan International | | Change Station

Höhe 98 ft 6.50 °N, 58.25 °W | Updated 14 minutes ago

Heiter
Heiter
73 °F
gefühlte 73 °F
N
2
Wind Wechselnd Wind aus Wechselnd

Heute
Max. -- | schwach -- °F
--% Regenrisiko
Gestern
Max. -- | schwach -- °F
Precip. -- inch
Druck 29.89 inch
Sichtweite 5.6 Meilen
Wolken
Taupunkt 72 °F
Feuchtigkeit 94%
Regen 0.00 inch
Schneehöhe Nicht verfügbar..
5:54 AM 6:02 PM
Letztes Viertel, 17% visible
METAR SYCJ 240600Z VRB02KT 9000 NSC 23/22 Q1012 NOSIG
Druck 29.89 inch
Sichtweite 5.6 Meilen
Wolken
Taupunkt 72 °F
Feuchtigkeit 94%
Regen 0.00 inch
Schneehöhe Nicht verfügbar..
5:54 AM 6:02 PM
Letztes Viertel, 17% visible
METAR SYCJ 240600Z VRB02KT 9000 NSC 23/22 Q1012 NOSIG

Get Severe Weather Alerts

Thanks for signing up!

Be on the lookout for a verification email in your inbox.

You'll start receiving the daily forecast at 8 AM.

×

10-Day Weather Forecast

No radar image for this location.
×

Almanac

Astronomie

Mar. 24, 2017 Aufgang Untergang
Genaue Zeit
Bürgerliche Dämmerung
Nautische Dämmerung
Astronomische Dämmerung
Mond
Länge des sichtbaren Lichts
Tageslänge
Tomorrow will be .
, % of the Moon is Illuminated

Heutige Rekorde

Country Highs Country Lows

Community

WunderPhotos

Upload Photos

1,962,540 Fotos hochgeladen!

WunderBlog® & News

Nearby

Luftqualität

  Luftqualität LQ Index Schadstoff
Not available.

Schneehöhe

Station Depth Höhe

Erdbebenaktivität

Stadt Distance Mag. Time & Date
Minimum magnitude displayed is 2.5.

Erdbebenaktivität

Stadt Distance Mag. Time & Date
Minimum magnitude displayed is 2.5.

küstennahe Wassertemperaturen

Ort Temperatur

Stations

Wetterstationen in der Umgebung

Stationsstandort Temp. Windchill Taupunkt Feuchtigkeit Wind Precip. Höhe Aktualisiert Art